Time;durP1;ratioP1;P1;durP2;ratioP2;P2;SDS_P1;SDS_P2;PMS_P1;PMS_P2;Temp;Humidity;BMP_temperature;BMP_pressure;BME280_temperature;BME280_humidity;BME280_pressure;Samples;Min_cycle;Max_cycle;Signal;HPM_P1;HPM_P2
2023/09/13 00:00:45;;;;;;;;;;;;;;;-140.72;100.00;52681.03;5074172;28;19921;-69
2023/09/13 00:03:16;;;;;;;;;;;;;;;-140.72;100.00;52697.28;5067348;28;19921;-68
2023/09/13 00:05:42;;;;;;;;;;;;;;;-140.72;100.00;52654.66;5067105;28;19921;-69
2023/09/13 00:08:07;;;;;;;;;;;;;;;-140.72;100.00;52642.47;5064341;28;19931;-69
2023/09/13 00:10:33;;;;;;;;;;;;;;;-140.72;100.00;52674.94;5072666;28;19934;-69
2023/09/13 00:12:58;;;;;;;;;;;;;;;-140.72;100.00;52642.47;5077909;28;19921;-69
2023/09/13 00:15:23;;;;;;;;;;;;;;;-140.72;100.00;52648.56;5073084;28;19920;-69
2023/09/13 00:17:48;;;;;;;;;;;;;;;-140.72;100.00;52656.69;5065330;28;19928;-69
2023/09/13 00:20:14;;;;;;;;;;;;;;;-140.72;100.00;52656.69;5073043;28;21076;-69
2023/09/13 00:22:39;;;;;;;;;;;;;;;-140.72;100.00;52650.59;5070004;28;19924;-69
2023/09/13 00:25:04;;;;;;;;;;;;;;;-140.72;100.00;52642.47;5069012;28;20367;-69
2023/09/13 00:27:29;;;;;;;;;;;;;;;-140.72;100.00;52650.59;5069912;28;19931;-70
2023/09/13 00:29:56;;;;;;;;;;;;;;;-140.72;100.00;52632.34;5069338;28;19927;-69
2023/09/13 00:32:21;;;;;;;;;;;;;;;-140.72;100.00;52650.59;5072782;28;19981;-69
2023/09/13 00:34:46;;;;;;;;;;;;;;;-140.72;100.00;52658.72;5070789;28;20341;-69
2023/09/13 00:37:11;;;;;;;;;;;;;;;-140.72;100.00;52652.63;5068726;28;19965;-69
2023/09/13 00:39:37;;;;;;;;;;;;;;;-140.72;100.00;52646.53;5072104;28;20023;-69
2023/09/13 00:42:04;;;;;;;;;;;;;;;-140.72;100.00;52646.53;5070163;28;19928;-69
2023/09/13 00:44:29;;;;;;;;;;;;;;;-140.72;100.00;52638.41;5071248;28;19978;-69
2023/09/13 00:46:55;;;;;;;;;;;;;;;-140.72;100.00;52632.34;5071999;28;19924;-69
2023/09/13 00:49:20;;;;;;;;;;;;;;;-140.72;100.00;52650.59;5069769;28;19927;-69
2023/09/13 00:51:46;;;;;;;;;;;;;;;-140.72;100.00;52658.72;5069227;28;19924;-69
2023/09/13 00:54:11;;;;;;;;;;;;;;;-140.72;100.00;52666.84;5067876;28;19951;-69
2023/09/13 00:56:37;;;;;;;;;;;;;;;-140.72;100.00;52658.72;5076027;28;19966;-69
2023/09/13 00:59:02;;;;;;;;;;;;;;;-140.72;100.00;52650.59;5074064;28;20271;-69
2023/09/13 01:01:28;;;;;;;;;;;;;;;-140.72;100.00;52624.22;5071758;28;19928;-69
2023/09/13 01:03:53;;;;;;;;;;;;;;;-140.72;100.00;52634.38;5065349;28;19942;-69
2023/09/13 01:06:19;;;;;;;;;;;;;;;-140.72;100.00;52687.13;5065241;28;19951;-69
2023/09/13 01:08:45;;;;;;;;;;;;;;;-140.72;100.00;52683.06;5066987;28;20006;-69
2023/09/13 01:11:11;;;;;;;;;;;;;;;-140.72;100.00;52636.38;5066881;28;19921;-69
2023/09/13 01:13:37;;;;;;;;;;;;;;;-140.72;100.00;52650.59;5065851;28;19921;-70
2023/09/13 01:16:09;;;;;;;;;;;;;;;-140.72;100.00;52642.47;5067285;28;19935;-70
2023/09/13 01:18:47;;;;;;;;;;;;;;;-140.72;100.00;52693.22;5086736;28;20388;-69
2023/09/13 01:21:18;;;;;;;;;;;;;;;-140.72;100.00;52658.72;5097916;28;19920;-69
2023/09/13 01:27:17;;;;;;;;;;;;;;;-140.72;100.00;52672.91;5061614;28;19927;-69
2023/09/13 01:29:44;;;;;;;;;;;;;;;-140.72;100.00;52666.84;5070137;28;19921;-69
2023/09/13 01:32:09;;;;;;;;;;;;;;;-140.72;100.00;52687.13;5072363;28;19989;-69
2023/09/13 01:34:34;;;;;;;;;;;;;;;-140.72;100.00;52662.78;5064540;28;20355;-69
2023/09/13 01:36:59;;;;;;;;;;;;;;;-140.72;100.00;52676.97;5066551;28;19920;-70
2023/09/13 01:39:25;;;;;;;;;;;;;;;-140.72;100.00;52683.06;5078683;28;19924;-69
2023/09/13 01:41:57;;;;;;;;;;;;;;;-140.72;100.00;52699.31;5073633;28;20306;-69
2023/09/13 01:44:23;;;;;;;;;;;;;;;-140.72;100.00;52666.84;5068736;28;19928;-69
2023/09/13 01:46:50;;;;;;;;;;;;;;;-140.72;100.00;52679.00;5068681;28;19924;-70
2023/09/13 01:49:18;;;;;;;;;;;;;;;-140.72;100.00;52693.22;5069406;28;19974;-69
2023/09/13 01:51:43;;;;;;;;;;;;;;;-140.72;100.00;52693.22;5075749;28;19920;-69
2023/09/13 01:54:08;;;;;;;;;;;;;;;-140.72;100.00;52681.03;5070635;28;20430;-69
2023/09/13 01:56:34;;;;;;;;;;;;;;;-140.72;100.00;52689.16;5074493;28;20016;-69
2023/09/13 01:59:00;;;;;;;;;;;;;;;-140.72;100.00;52695.25;5066953;28;20003;-69
2023/09/13 02:01:26;;;;;;;;;;;;;;;-140.72;100.00;52695.25;5066786;28;19990;-69
2023/09/13 02:03:51;;;;;;;;;;;;;;;-140.72;100.00;52697.28;5071679;28;19924;-69
2023/09/13 02:06:16;;;;;;;;;;;;;;;-140.72;100.00;52672.91;5070095;28;19921;-69
2023/09/13 02:08:45;;;;;;;;;;;;;;;-140.72;100.00;52697.28;5068884;28;20007;-69
2023/09/13 02:11:11;;;;;;;;;;;;;;;-140.72;100.00;52717.56;5060881;28;19952;-69
2023/09/13 02:13:36;;;;;;;;;;;;;;;-140.72;100.00;52707.41;5068266;28;19920;-69
2023/09/13 02:16:02;;;;;;;;;;;;;;;-140.72;100.00;52685.09;5079833;28;19982;-69
2023/09/13 02:18:32;;;;;;;;;;;;;;;-140.72;100.00;52715.53;5068840;28;19920;-69
2023/09/13 02:20:57;;;;;;;;;;;;;;;-140.72;100.00;52717.56;5060114;28;20318;-69
2023/09/13 02:23:22;;;;;;;;;;;;;;;-140.72;100.00;52670.88;5066600;28;20066;-69
2023/09/13 02:25:47;;;;;;;;;;;;;;;-140.72;100.00;52703.34;5066341;28;20275;-69
2023/09/13 02:28:13;;;;;;;;;;;;;;;-140.72;100.00;52719.59;5071983;28;20007;-69
2023/09/13 02:30:38;;;;;;;;;;;;;;;-140.72;100.00;52695.25;5075839;28;19989;-69
2023/09/13 02:33:04;;;;;;;;;;;;;;;-140.72;100.00;52711.47;5076670;28;19921;-70
2023/09/13 02:35:30;;;;;;;;;;;;;;;-140.72;100.00;52687.13;5070092;28;19970;-69
2023/09/13 02:37:55;;;;;;;;;;;;;;;-140.72;100.00;52750.03;5067298;28;20432;-69
2023/09/13 02:40:20;;;;;;;;;;;;;;;-140.72;100.00;52717.56;5066518;28;20007;-69
2023/09/13 02:42:45;;;;;;;;;;;;;;;-140.72;100.00;52725.69;5070707;28;19938;-69
2023/09/13 02:45:12;;;;;;;;;;;;;;;-140.72;100.00;52711.47;5078183;28;20269;-69
2023/09/13 02:47:37;;;;;;;;;;;;;;;-140.72;100.00;52695.25;5069096;28;20379;-69
2023/09/13 02:50:03;;;;;;;;;;;;;;;-140.72;100.00;52687.13;5067323;28;19926;-69
2023/09/13 02:52:30;;;;;;;;;;;;;;;-140.72;100.00;52703.34;5067684;28;19920;-69
2023/09/13 02:54:59;;;;;;;;;;;;;;;-140.72;100.00;52695.25;5067270;28;20457;-69
2023/09/13 02:57:24;;;;;;;;;;;;;;;-140.72;100.00;52687.13;5087091;28;19921;-69
2023/09/13 02:59:49;;;;;;;;;;;;;;;-140.72;100.00;52681.03;5071494;28;20746;-69
2023/09/13 03:02:15;;;;;;;;;;;;;;;-140.72;100.00;52705.38;5074393;28;20063;-69
2023/09/13 03:04:40;;;;;;;;;;;;;;;-140.72;100.00;52711.47;5073193;28;19921;-69
2023/09/13 03:07:05;;;;;;;;;;;;;;;-140.72;100.00;52727.72;5072130;28;19928;-69
2023/09/13 03:09:30;;;;;;;;;;;;;;;-140.72;100.00;52725.69;5069311;28;19921;-69
2023/09/13 03:11:56;;;;;;;;;;;;;;;-140.72;100.00;52674.94;5077003;28;19921;-69
2023/09/13 03:14:21;;;;;;;;;;;;;;;-140.72;100.00;52717.56;5065462;28;20019;-69
2023/09/13 03:16:46;;;;;;;;;;;;;;;-140.72;100.00;52727.72;5071530;28;19921;-69
2023/09/13 03:19:11;;;;;;;;;;;;;;;-140.72;100.00;52711.47;5072614;28;19920;-69
2023/09/13 03:21:37;;;;;;;;;;;;;;;-140.72;100.00;52691.19;5069396;28;19920;-69
2023/09/13 03:24:04;;;;;;;;;;;;;;;-140.72;100.00;52705.38;5073144;28;20402;-69
2023/09/13 03:26:31;;;;;;;;;;;;;;;-140.72;100.00;52695.25;5067485;28;19963;-69
2023/09/13 03:28:56;;;;;;;;;;;;;;;-140.72;100.00;52739.88;5066738;28;19920;-69
2023/09/13 03:31:22;;;;;;;;;;;;;;;-140.72;100.00;52719.59;5070299;28;19927;-69
2023/09/13 03:33:48;;;;;;;;;;;;;;;-140.72;100.00;52729.75;5071603;28;19920;-69
2023/09/13 03:36:14;;;;;;;;;;;;;;;-140.72;100.00;52699.31;5070198;28;19927;-69
2023/09/13 03:38:40;;;;;;;;;;;;;;;-140.72;100.00;52731.75;5064465;28;20445;-69
2023/09/13 03:41:09;;;;;;;;;;;;;;;-140.72;100.00;52681.03;5070203;28;19921;-69
2023/09/13 03:43:34;;;;;;;;;;;;;;;-140.72;100.00;52713.50;5066513;28;20004;-69
2023/09/13 03:46:00;;;;;;;;;;;;;;;-140.72;100.00;52691.19;5069691;28;20015;-69
2023/09/13 03:48:25;;;;;;;;;;;;;;;-140.72;100.00;52721.63;5077850;28;19970;-69
2023/09/13 03:50:51;;;;;;;;;;;;;;;-140.72;100.00;52711.47;5069229;28;19947;-69
2023/09/13 03:53:16;;;;;;;;;;;;;;;-140.72;100.00;52703.34;5069334;28;19927;-69
2023/09/13 03:55:41;;;;;;;;;;;;;;;-140.72;100.00;52687.13;5067242;28;20007;-69
2023/09/13 03:58:07;;;;;;;;;;;;;;;-140.72;100.00;52721.63;5067621;28;19931;-69
2023/09/13 04:00:34;;;;;;;;;;;;;;;-140.72;100.00;52681.03;5069964;28;20386;-69
2023/09/13 04:02:59;;;;;;;;;;;;;;;-140.72;100.00;52695.25;5065771;28;19932;-69
2023/09/13 04:05:24;;;;;;;;;;;;;;;-140.72;100.00;52683.06;5067197;28;20307;-69
2023/09/13 04:07:51;;;;;;;;;;;;;;;-140.72;100.00;52676.97;5070942;28;19920;-69
2023/09/13 04:10:16;;;;;;;;;;;;;;;-140.72;100.00;52727.72;5069405;28;19921;-69
2023/09/13 04:12:45;;;;;;;;;;;;;;;-140.72;100.00;52735.81;5068414;28;19927;-69
2023/09/13 04:15:10;;;;;;;;;;;;;;;-140.72;100.00;52715.53;5070172;28;19927;-69
2023/09/13 04:17:35;;;;;;;;;;;;;;;-140.72;100.00;52713.50;5075104;28;19921;-69
2023/09/13 04:20:01;;;;;;;;;;;;;;;-140.72;100.00;52685.09;5057564;28;19928;-69
2023/09/13 04:22:26;;;;;;;;;;;;;;;-140.72;100.00;52707.41;5066731;28;20367;-74
2023/09/13 04:24:51;;;;;;;;;;;;;;;-140.72;100.00;52711.47;5071878;28;19920;-71
2023/09/13 04:27:20;;;;;;;;;;;;;;;-140.72;100.00;52719.59;5067083;28;19927;-71
2023/09/13 04:29:45;;;;;;;;;;;;;;;-140.72;100.00;52707.41;5071523;28;19920;-73
2023/09/13 04:32:10;;;;;;;;;;;;;;;-140.72;100.00;52729.75;5070917;28;19920;-75
2023/09/13 04:34:37;;;;;;;;;;;;;;;-140.72;100.00;52691.19;5067369;28;19921;-74
2023/09/13 04:37:04;;;;;;;;;;;;;;;-140.72;100.00;52709.44;5049636;28;19924;-74
2023/09/13 04:39:31;;;;;;;;;;;;;;;-140.72;100.00;52691.19;5068776;28;19932;-73
2023/09/13 04:41:57;;;;;;;;;;;;;;;-140.72;100.00;52693.22;5077074;28;19930;-73
2023/09/13 04:44:22;;;;;;;;;;;;;;;-140.72;100.00;52713.50;5065475;28;19920;-73
2023/09/13 04:46:50;;;;;;;;;;;;;;;-140.72;100.00;52727.72;5069823;28;19921;-74
2023/09/13 04:49:15;;;;;;;;;;;;;;;-140.72;100.00;52656.69;5076044;28;20320;-74
2023/09/13 04:51:53;;;;;;;;;;;;;;;-140.72;100.00;52699.31;5071414;28;19916;-73
2023/09/13 04:54:22;;;;;;;;;;;;;;;-140.72;100.00;52685.09;5070084;28;19928;-75
2023/09/13 04:56:47;;;;;;;;;;;;;;;-140.72;100.00;52703.34;5076621;28;19921;-74
2023/09/13 04:59:12;;;;;;;;;;;;;;;-140.72;100.00;52685.09;5073658;28;19922;-78
2023/09/13 05:01:37;;;;;;;;;;;;;;;-140.72;100.00;52748.00;5075350;28;19920;-77
2023/09/13 05:04:03;;;;;;;;;;;;;;;-140.72;100.00;52670.88;5070910;28;20007;-76
2023/09/13 05:06:42;;;;;;;;;;;;;;;-140.72;100.00;52713.50;5074214;28;19921;-75
2023/09/13 05:09:07;;;;;;;;;;;;;;;-140.72;100.00;52711.47;5074007;28;19928;-75
2023/09/13 05:11:32;;;;;;;;;;;;;;;-140.72;100.00;52707.41;5077620;28;19924;-74
2023/09/13 05:14:11;;;;;;;;;;;;;;;-140.72;100.00;52756.13;5076758;28;19963;-69
2023/09/13 05:16:36;;;;;;;;;;;;;;;-140.72;100.00;52748.00;5075507;28;19923;-70
2023/09/13 05:19:09;;;;;;;;;;;;;;;-140.72;100.00;52731.75;5071158;28;20011;-75
2023/09/13 05:21:34;;;;;;;;;;;;;;;-140.72;100.00;52737.84;5072414;28;20302;-72
2023/09/13 05:24:02;;;;;;;;;;;;;;;-140.72;100.00;52723.66;5082430;28;19920;-73
2023/09/13 05:26:27;;;;;;;;;;;;;;;-140.72;100.00;52723.66;5074165;28;20302;-72
2023/09/13 05:28:52;;;;;;;;;;;;;;;-140.72;100.00;52717.56;5089723;28;19916;-72
2023/09/13 05:31:19;;;;;;;;;;;;;;;-140.72;100.00;52756.13;5073997;28;19977;-73
2023/09/13 05:33:44;;;;;;;;;;;;;;;-140.72;100.00;52748.00;5072916;28;19927;-73
2023/09/13 05:36:10;;;;;;;;;;;;;;;-140.72;100.00;52723.66;5067708;28;19917;-73
2023/09/13 05:38:35;;;;;;;;;;;;;;;-140.72;100.00;52778.44;5080223;28;19952;-72
2023/09/13 05:41:07;;;;;;;;;;;;;;;-140.72;100.00;52762.22;5075061;28;19921;-73
2023/09/13 05:43:35;;;;;;;;;;;;;;;-140.72;100.00;52776.41;5067825;28;20459;-73
2023/09/13 05:46:00;;;;;;;;;;;;;;;-140.72;100.00;52743.94;5072242;28;19971;-73
2023/09/13 05:48:37;;;;;;;;;;;;;;;-140.72;100.00;52731.75;5065373;28;20336;-73
2023/09/13 05:51:02;;;;;;;;;;;;;;;-140.72;100.00;52754.09;5053961;28;19932;-73
2023/09/13 05:53:29;;;;;;;;;;;;;;;-140.72;100.00;52784.53;5070670;28;19971;-72
2023/09/13 05:55:55;;;;;;;;;;;;;;;-140.72;100.00;52729.75;5067692;28;19971;-73
2023/09/13 05:58:21;;;;;;;;;;;;;;;-140.72;100.00;52748.00;5073292;28;19924;-73
2023/09/13 06:00:47;;;;;;;;;;;;;;;-140.72;100.00;52776.41;5082305;28;19925;-73
2023/09/13 06:03:13;;;;;;;;;;;;;;;-140.72;100.00;52784.53;5072547;28;20011;-75
2023/09/13 06:05:38;;;;;;;;;;;;;;;-140.72;100.00;52737.84;5076934;28;19943;-78
2023/09/13 06:08:12;;;;;;;;;;;;;;;-140.72;100.00;52756.13;5071197;28;20029;-79
2023/09/13 06:10:37;;;;;;;;;;;;;;;-140.72;100.00;52778.44;5075070;28;19920;-78
2023/09/13 06:13:02;;;;;;;;;;;;;;;-140.72;100.00;52764.25;5080469;28;20035;-72
2023/09/13 06:15:27;;;;;;;;;;;;;;;-140.72;100.00;52788.59;5078022;28;19927;-71
2023/09/13 06:17:54;;;;;;;;;;;;;;;-140.72;100.00;52743.94;5069770;28;19921;-71
2023/09/13 06:20:20;;;;;;;;;;;;;;;-140.72;100.00;52731.75;5062017;28;19928;-71
2023/09/13 06:22:45;;;;;;;;;;;;;;;-140.72;100.00;52745.97;5070669;28;20333;-72
2023/09/13 06:28:20;;;;;;;;;;;;;;;-140.72;100.00;52766.25;5071215;28;19923;-72
2023/09/13 06:31:05;;;;;;;;;;;;;;;-140.72;100.00;52788.59;5067640;28;19974;-78
2023/09/13 06:33:30;;;;;;;;;;;;;;;-140.72;100.00;52780.47;5071874;28;19931;-77
2023/09/13 06:35:56;;;;;;;;;;;;;;;-140.72;100.00;52752.06;5072910;28;19924;-77
2023/09/13 06:38:21;;;;;;;;;;;;;;;-140.72;100.00;52739.88;5074319;28;19920;-76
2023/09/13 06:40:48;;;;;;;;;;;;;;;-140.72;100.00;52760.19;5075897;28;19927;-77
2023/09/13 06:43:13;;;;;;;;;;;;;;;-140.72;100.00;52739.88;5069555;28;19928;-79
2023/09/13 06:45:42;;;;;;;;;;;;;;;-140.72;100.00;52737.84;5072085;28;19940;-78
2023/09/13 06:48:07;;;;;;;;;;;;;;;-140.72;100.00;52780.47;5063582;28;19920;-79
2023/09/13 06:50:32;;;;;;;;;;;;;;;-140.72;100.00;52723.66;5001816;28;1874034;-78
2023/09/13 06:52:57;;;;;;;;;;;;;;;-140.72;100.00;52723.66;5084992;28;19928;-77
2023/09/13 06:55:23;;;;;;;;;;;;;;;-140.72;100.00;52748.00;5069524;28;19931;-77
2023/09/13 06:57:51;;;;;;;;;;;;;;;-140.72;100.00;52717.56;5069266;28;19921;-78
2023/09/13 07:00:16;;;;;;;;;;;;;;;-140.72;100.00;52748.00;5078465;28;19920;-78
2023/09/13 07:02:41;;;;;;;;;;;;;;;-140.72;100.00;52776.41;5066208;28;19927;-78
2023/09/13 07:05:06;;;;;;;;;;;;;;;-140.72;100.00;52743.94;5075383;28;19970;-77
2023/09/13 07:07:32;;;;;;;;;;;;;;;-140.72;100.00;52758.16;5066109;28;19982;-80
2023/09/13 07:09:57;;;;;;;;;;;;;;;-140.72;100.00;52760.19;5074333;28;19920;-79
2023/09/13 07:12:22;;;;;;;;;;;;;;;-140.72;100.00;52699.31;5074060;28;19921;-79
2023/09/13 07:14:47;;;;;;;;;;;;;;;-140.72;100.00;52774.38;5083738;28;19940;-79
2023/09/13 07:17:15;;;;;;;;;;;;;;;-140.72;100.00;52703.34;5077926;28;19943;-79
2023/09/13 07:19:40;;;;;;;;;;;;;;;-140.72;100.00;52748.00;5071163;28;19920;-80
2023/09/13 07:22:05;;;;;;;;;;;;;;;-140.72;100.00;52715.53;5069490;28;20282;-79
2023/09/13 07:24:30;;;;;;;;;;;;;;;-140.72;100.00;52737.84;5075070;28;19924;-79
2023/09/13 07:26:56;;;;;;;;;;;;;;;-140.72;100.00;52731.75;5077721;28;19931;-80
2023/09/13 07:29:21;;;;;;;;;;;;;;;-140.72;100.00;52707.41;5078833;28;19935;-78
2023/09/13 07:31:46;;;;;;;;;;;;;;;-140.72;100.00;52660.75;5071386;28;20295;-77
2023/09/13 07:34:11;;;;;;;;;;;;;;;-140.72;100.00;52654.66;5076360;28;19965;-77
2023/09/13 07:36:38;;;;;;;;;;;;;;;-140.72;100.00;52693.22;5068312;28;19924;-78
2023/09/13 07:39:03;;;;;;;;;;;;;;;-140.72;100.00;52648.56;5074538;28;19920;-78
2023/09/13 07:41:29;;;;;;;;;;;;;;;-140.72;100.00;52662.78;5072555;28;19931;-77
2023/09/13 07:43:54;;;;;;;;;;;;;;;-140.72;100.00;52646.53;5077054;28;19960;-77
2023/09/13 07:46:19;;;;;;;;;;;;;;;-140.72;100.00;52654.66;5080467;28;19978;-77
2023/09/13 07:48:45;;;;;;;;;;;;;;;-140.72;100.00;52656.69;5087152;28;19920;-78
2023/09/13 07:51:10;;;;;;;;;;;;;;;-140.72;100.00;52634.38;5082064;28;19920;-77
2023/09/13 07:53:35;;;;;;;;;;;;;;;-140.72;100.00;52642.47;5078930;28;20378;-78
2023/09/13 07:56:00;;;;;;;;;;;;;;;-140.72;100.00;52634.38;5079622;28;19982;-77
2023/09/13 07:58:26;;;;;;;;;;;;;;;-140.72;100.00;52648.56;5070851;28;20280;-78
2023/09/13 08:00:52;;;;;;;;;;;;;;;-140.72;100.00;52640.44;5075212;28;19921;-78
2023/09/13 08:03:17;;;;;;;;;;;;;;;-140.72;100.00;52626.25;5077827;28;20003;-78
2023/09/13 08:05:46;;;;;;;;;;;;;;;-140.72;100.00;52654.66;5073226;28;19952;-79
2023/09/13 08:08:15;;;;;;;;;;;;;;;-140.72;100.00;52652.63;5071352;28;19928;-79
2023/09/13 08:10:41;;;;;;;;;;;;;;;-140.72;100.00;52632.34;5078448;28;19917;-78
2023/09/13 08:13:06;;;;;;;;;;;;;;;-140.72;100.00;52632.34;5068765;28;20359;-77
2023/09/13 08:15:31;;;;;;;;;;;;;;;-140.72;100.00;52620.16;5068209;28;21402;-78
2023/09/13 08:17:57;;;;;;;;;;;;;;;-140.72;100.00;52601.91;5074330;28;19920;-77
2023/09/13 08:20:22;;;;;;;;;;;;;;;-140.72;100.00;52597.84;5073899;28;19917;-78
2023/09/13 08:22:47;;;;;;;;;;;;;;;-140.72;100.00;52622.19;5069662;28;19927;-78
2023/09/13 08:25:12;;;;;;;;;;;;;;;-140.72;100.00;52636.38;5073764;28;20332;-77
2023/09/13 08:27:38;;;;;;;;;;;;;;;-140.72;100.00;52587.69;5074011;28;19993;-79
2023/09/13 08:30:04;;;;;;;;;;;;;;;-140.72;100.00;52593.78;5080858;28;20324;-77
2023/09/13 08:32:29;;;;;;;;;;;;;;;-140.72;100.00;52591.75;5071892;28;19924;-79
2023/09/13 08:34:55;;;;;;;;;;;;;;;-140.72;100.00;52597.84;5089083;28;20302;-77
2023/09/13 08:37:21;;;;;;;;;;;;;;;-140.72;100.00;52557.25;5086541;28;19924;-78
2023/09/13 08:39:46;;;;;;;;;;;;;;;-140.72;100.00;52549.13;5085641;28;19955;-78
2023/09/13 08:42:12;;;;;;;;;;;;;;;-140.72;100.00;52565.38;5069019;28;19921;-78
2023/09/13 08:44:38;;;;;;;;;;;;;;;-140.72;100.00;52599.88;5061431;28;19920;-78
2023/09/13 08:47:04;;;;;;;;;;;;;;;-140.72;100.00;52587.69;5067843;28;20011;-78
2023/09/13 08:49:31;;;;;;;;;;;;;;;-140.72;100.00;52526.81;5075053;28;20508;-78
2023/09/13 08:51:57;;;;;;;;;;;;;;;-140.72;100.00;52561.31;5073730;28;20387;-79
2023/09/13 08:54:22;;;;;;;;;;;;;;;-140.72;100.00;52530.88;5077064;28;19928;-79
2023/09/13 08:56:48;;;;;;;;;;;;;;;-140.72;100.00;52520.72;5073427;28;19916;-78
2023/09/13 08:59:13;;;;;;;;;;;;;;;-140.72;100.00;52524.78;5086294;28;19927;-78
2023/09/13 09:01:42;;;;;;;;;;;;;;;-140.72;100.00;52506.53;5088060;28;19958;-77
2023/09/13 09:04:09;;;;;;;;;;;;;;;-140.72;100.00;52504.50;5083186;28;19990;-77
2023/09/13 09:06:35;;;;;;;;;;;;;;;-140.72;100.00;52528.84;5078390;28;19928;-79
2023/09/13 09:09:00;;;;;;;;;;;;;;;-140.72;100.00;52496.38;5085104;28;20002;-80
2023/09/13 09:11:27;;;;;;;;;;;;;;;-140.72;100.00;52526.81;5089428;28;20383;-79
2023/09/13 09:13:57;;;;;;;;;;;;;;;-140.72;100.00;52528.84;5078116;28;20338;-81
2023/09/13 09:16:23;;;;;;;;;;;;;;;-140.72;100.00;52555.22;5079262;28;19943;-78
2023/09/13 09:18:50;;;;;;;;;;;;;;;-140.72;100.00;52553.19;5075682;28;19928;-78
2023/09/13 09:21:16;;;;;;;;;;;;;;;-140.72;100.00;52565.38;5069295;28;19920;-78
2023/09/13 09:23:42;;;;;;;;;;;;;;;-140.72;100.00;52587.69;5076658;28;20677;-79
2023/09/13 09:26:07;;;;;;;;;;;;;;;-140.72;100.00;52543.03;5075633;28;19982;-78
2023/09/13 09:28:32;;;;;;;;;;;;;;;-140.72;100.00;52589.72;5065011;28;19943;-78
2023/09/13 09:30:59;;;;;;;;;;;;;;;-140.72;100.00;52545.06;5077194;28;19916;-77
2023/09/13 09:33:31;;;;;;;;;;;;;;;-140.72;100.00;52559.28;5082808;28;20000;-77
2023/09/13 09:35:58;;;;;;;;;;;;;;;-140.72;100.00;52547.09;5070215;28;19931;-79
2023/09/13 09:38:24;;;;;;;;;;;;;;;-140.72;100.00;52545.06;5067201;28;20275;-80
2023/09/13 09:40:50;;;;;;;;;;;;;;;-140.72;100.00;52522.75;5068989;28;20917;-78
2023/09/13 09:43:15;;;;;;;;;;;;;;;-140.72;100.00;52541.03;5065762;28;19931;-76
2023/09/13 09:45:40;;;;;;;;;;;;;;;-140.72;100.00;52520.72;5075221;28;20283;-76
2023/09/13 09:48:07;;;;;;;;;;;;;;;-140.72;100.00;52522.75;5072178;28;20020;-78
2023/09/13 09:50:32;;;;;;;;;;;;;;;-140.72;100.00;52490.28;5067856;28;20031;-79
2023/09/13 09:52:57;;;;;;;;;;;;;;;-140.72;100.00;52488.25;5075326;28;20524;-78
2023/09/13 09:55:25;;;;;;;;;;;;;;;-140.72;100.00;52472.03;5076717;28;20599;-79
2023/09/13 09:57:51;;;;;;;;;;;;;;;-140.72;100.00;52421.28;5082072;28;20162;-79
2023/09/13 10:00:16;;;;;;;;;;;;;;;-140.72;100.00;52433.47;5083541;28;19996;-80
2023/09/13 10:02:45;;;;;;;;;;;;;;;-140.72;100.00;52447.69;5084310;28;19921;-77
2023/09/13 10:05:13;;;;;;;;;;;;;;;-140.72;100.00;52384.78;5079838;28;20011;-80
2023/09/13 10:07:49;;;;;;;;;;;;;;;-140.72;100.00;52334.03;5079662;28;19924;-79
2023/09/13 10:10:26;;;;;;;;;;;;;;;-140.72;0.00;52342.16;5075848;28;19942;-79
2023/09/13 10:12:54;;;;;;;;;;;;;;;-140.72;0.00;52366.50;5072007;28;20061;-79
2023/09/13 10:15:20;;;;;;;;;;;;;;;-140.72;0.00;52380.72;5092644;28;19924;-78
2023/09/13 10:17:47;;;;;;;;;;;;;;;-140.72;0.00;52323.91;5076694;28;19921;-78
2023/09/13 10:20:14;;;;;;;;;;;;;;;-140.72;0.00;52336.06;5085949;28;19931;-78
2023/09/13 10:22:40;;;;;;;;;;;;;;;-140.72;0.00;52332.03;5081299;28;20023;-78
2023/09/13 10:25:07;;;;;;;;;;;;;;;-140.72;0.00;52309.69;5069933;28;19971;-77
2023/09/13 10:27:33;;;;;;;;;;;;;;;-140.72;0.00;52212.31;5064052;28;19963;-80
2023/09/13 10:30:00;;;;;;;;;;;;;;;-140.72;0.00;52222.44;5076269;28;19920;-78
2023/09/13 10:32:47;;;;;;;;;;;;;;;-140.72;0.00;52244.78;5073645;28;19993;-77
2023/09/13 10:35:13;;;;;;;;;;;;;;;-140.72;0.00;52200.13;5085021;28;19928;-77
2023/09/13 10:37:42;;;;;;;;;;;;;;;-140.72;0.00;52222.44;5073987;28;20223;-77
2023/09/13 10:40:27;;;;;;;;;;;;;;;-140.72;0.00;52218.38;5076735;28;20379;-79
2023/09/13 10:42:53;;;;;;;;;;;;;;;-140.72;0.00;52267.09;5074014;28;19934;-78
2023/09/13 10:45:18;;;;;;;;;;;;;;;-140.72;0.00;52297.53;5073556;28;20050;-78
2023/09/13 10:47:44;;;;;;;;;;;;;;;-140.72;0.00;52380.72;5073076;28;20327;-78
2023/09/13 10:50:10;;;;;;;;;;;;;;;-140.72;0.00;52439.56;5072824;28;19937;-79
2023/09/13 10:52:35;;;;;;;;;;;;;;;-140.72;0.00;52449.72;5080873;28;19987;-77
2023/09/13 10:55:04;;;;;;;;;;;;;;;-140.72;0.00;52516.66;5073935;28;19947;-76
2023/09/13 10:57:30;;;;;;;;;;;;;;;-140.72;0.00;52528.84;5075535;28;19943;-77
2023/09/13 11:00:08;;;;;;;;;;;;;;;-140.72;36.44;52504.50;5081927;28;19923;-79
2023/09/13 11:02:34;;;;;;;;;;;;;;;-140.72;100.00;52536.97;5065966;28;19967;-77
2023/09/13 11:04:59;;;;;;;;;;;;;;;-140.72;100.00;52559.28;5077651;28;19924;-78
2023/09/13 11:07:24;;;;;;;;;;;;;;;-140.72;100.00;52591.75;5074326;28;19965;-77
2023/09/13 11:09:50;;;;;;;;;;;;;;;-140.72;100.00;52605.94;5072251;28;19921;-79
2023/09/13 11:12:15;;;;;;;;;;;;;;;-140.72;100.00;52612.03;5066538;28;19925;-78
2023/09/13 11:14:47;;;;;;;;;;;;;;;-140.72;100.00;52630.31;5072702;28;20382;-77
2023/09/13 11:17:40;;;;;;;;;;;;;;;-140.72;100.00;52638.41;5068695;28;19927;-77
2023/09/13 11:20:20;;;;;;;;;;;;;;;-140.72;100.00;52622.19;5072289;28;19921;-81
2023/09/13 11:22:58;;;;;;;;;;;;;;;-140.72;100.00;52601.91;5087947;28;20439;-78
2023/09/13 11:25:23;;;;;;;;;;;;;;;-140.72;100.00;52610.00;5070066;28;19935;-80
2023/09/13 11:27:48;;;;;;;;;;;;;;;-140.72;100.00;52605.94;5071649;28;19928;-78
2023/09/13 11:30:14;;;;;;;;;;;;;;;-140.72;100.00;52547.09;5074451;28;20002;-78
2023/09/13 11:32:43;;;;;;;;;;;;;;;-140.72;100.00;52614.06;5071376;28;19925;-78
2023/09/13 11:35:10;;;;;;;;;;;;;;;-140.72;100.00;52549.13;5072068;28;19931;-78
2023/09/13 11:37:35;;;;;;;;;;;;;;;-140.72;100.00;52526.81;5066636;28;20387;-76
2023/09/13 11:40:10;;;;;;;;;;;;;;;-140.72;100.00;52512.59;5078612;28;19928;-78
2023/09/13 11:42:36;;;;;;;;;;;;;;;-140.72;100.00;52492.31;5068890;28;19969;-78
2023/09/13 11:45:05;;;;;;;;;;;;;;;-140.72;100.00;52467.97;5075672;28;19920;-80
2023/09/13 11:47:33;;;;;;;;;;;;;;;-140.72;100.00;52435.50;5082046;28;19936;-78
2023/09/13 11:49:59;;;;;;;;;;;;;;;-140.72;79.65;52419.28;5077802;28;19966;-78
2023/09/13 11:52:24;;;;;;;;;;;;;;;-140.72;0.00;52390.84;5075830;28;19924;-78
2023/09/13 11:54:59;;;;;;;;;;;;;;;-140.72;0.00;52423.31;5079280;28;19968;-78
2023/09/13 11:57:44;;;;;;;;;;;;;;;-140.72;0.00;52435.50;5079168;28;19944;-78
2023/09/13 12:00:14;;;;;;;;;;;;;;;-140.72;0.00;52435.50;5076983;28;20279;-78
2023/09/13 12:02:43;;;;;;;;;;;;;;;-140.72;0.00;52423.31;5078432;28;19928;-78
2023/09/13 12:05:09;;;;;;;;;;;;;;;-140.72;0.00;52455.78;5074632;28;20293;-78
2023/09/13 12:07:34;;;;;;;;;;;;;;;-140.72;0.00;52405.06;5077960;28;19999;-77
2023/09/13 12:09:59;;;;;;;;;;;;;;;-140.72;0.00;52407.09;5068094;28;19932;-77
2023/09/13 12:12:26;;;;;;;;;;;;;;;-140.72;0.00;52417.25;5057413;28;19932;-77
2023/09/13 12:14:51;;;;;;;;;;;;;;;-140.72;0.00;52403.03;5069361;28;19944;-78
2023/09/13 12:17:16;;;;;;;;;;;;;;;-140.72;0.00;52427.38;5071761;28;20421;-77
2023/09/13 12:19:43;;;;;;;;;;;;;;;-140.72;0.00;52378.69;5071549;28;19948;-78
2023/09/13 12:22:16;;;;;;;;;;;;;;;-140.72;0.00;52451.72;5067881;28;20365;-77
2023/09/13 12:24:48;;;;;;;;;;;;;;;-140.72;0.00;52390.84;5071163;28;20006;-77